sensor_id;sensor_type;location;lat;lon;timestamp;P1;durP1;ratioP1;P2;durP2;ratioP2
51654;SDS011;37732;53.106;7.030;2023-02-28T00:01:21;10.15;;;5.32;;
51654;SDS011;37732;53.106;7.030;2023-02-28T00:03:49;10.32;;;4.30;;
51654;SDS011;37732;53.106;7.030;2023-02-28T00:06:15;12.40;;;5.80;;
51654;SDS011;37732;53.106;7.030;2023-02-28T00:08:41;10.07;;;5.10;;
51654;SDS011;37732;53.106;7.030;2023-02-28T00:11:09;8.15;;;4.20;;
51654;SDS011;37732;53.106;7.030;2023-02-28T00:13:39;9.90;;;5.85;;
51654;SDS011;37732;53.106;7.030;2023-02-28T00:16:09;11.50;;;5.68;;
51654;SDS011;37732;53.106;7.030;2023-02-28T00:18:39;11.65;;;5.75;;
51654;SDS011;37732;53.106;7.030;2023-02-28T00:21:06;11.25;;;5.68;;
51654;SDS011;37732;53.106;7.030;2023-02-28T00:23:33;7.57;;;4.40;;
51654;SDS011;37732;53.106;7.030;2023-02-28T00:26:00;7.97;;;4.60;;
51654;SDS011;37732;53.106;7.030;2023-02-28T00:28:27;7.82;;;4.65;;
51654;SDS011;37732;53.106;7.030;2023-02-28T00:30:53;10.20;;;5.32;;
51654;SDS011;37732;53.106;7.030;2023-02-28T00:33:19;11.52;;;5.43;;
51654;SDS011;37732;53.106;7.030;2023-02-28T00:35:45;8.82;;;5.13;;
51654;SDS011;37732;53.106;7.030;2023-02-28T00:38:12;10.45;;;5.85;;
51654;SDS011;37732;53.106;7.030;2023-02-28T00:40:38;11.20;;;6.07;;
51654;SDS011;37732;53.106;7.030;2023-02-28T00:43:05;9.00;;;5.50;;
51654;SDS011;37732;53.106;7.030;2023-02-28T00:45:31;9.13;;;5.00;;
51654;SDS011;37732;53.106;7.030;2023-02-28T00:47:57;11.23;;;6.13;;
51654;SDS011;37732;53.106;7.030;2023-02-28T00:50:24;11.88;;;7.45;;
51654;SDS011;37732;53.106;7.030;2023-02-28T00:55:27;15.73;;;5.57;;
51654;SDS011;37732;53.106;7.030;2023-02-28T00:57:53;9.93;;;5.82;;
51654;SDS011;37732;53.106;7.030;2023-02-28T01:00:18;13.90;;;6.60;;
51654;SDS011;37732;53.106;7.030;2023-02-28T01:02:46;6.97;;;4.88;;
51654;SDS011;37732;53.106;7.030;2023-02-28T01:05:12;9.95;;;5.45;;
51654;SDS011;37732;53.106;7.030;2023-02-28T01:07:38;9.48;;;4.90;;
51654;SDS011;37732;53.106;7.030;2023-02-28T01:10:04;9.27;;;4.90;;
51654;SDS011;37732;53.106;7.030;2023-02-28T01:12:31;8.27;;;4.75;;
51654;SDS011;37732;53.106;7.030;2023-02-28T01:14:56;10.00;;;5.80;;
51654;SDS011;37732;53.106;7.030;2023-02-28T01:17:23;7.30;;;5.10;;
51654;SDS011;37732;53.106;7.030;2023-02-28T01:19:52;7.95;;;4.90;;
51654;SDS011;37732;53.106;7.030;2023-02-28T01:22:20;9.35;;;4.88;;
51654;SDS011;37732;53.106;7.030;2023-02-28T01:24:47;7.57;;;5.10;;
51654;SDS011;37732;53.106;7.030;2023-02-28T01:27:13;8.48;;;4.72;;
51654;SDS011;37732;53.106;7.030;2023-02-28T01:29:39;9.50;;;5.00;;
51654;SDS011;37732;53.106;7.030;2023-02-28T01:32:05;7.13;;;4.63;;
51654;SDS011;37732;53.106;7.030;2023-02-28T01:34:31;8.85;;;5.00;;
51654;SDS011;37732;53.106;7.030;2023-02-28T01:36:58;9.45;;;5.32;;
51654;SDS011;37732;53.106;7.030;2023-02-28T01:39:24;10.57;;;4.65;;
51654;SDS011;37732;53.106;7.030;2023-02-28T01:41:50;9.48;;;5.82;;
51654;SDS011;37732;53.106;7.030;2023-02-28T01:47:22;8.75;;;5.20;;
51654;SDS011;37732;53.106;7.030;2023-02-28T01:49:50;8.07;;;5.55;;
51654;SDS011;37732;53.106;7.030;2023-02-28T01:52:17;8.40;;;5.43;;
51654;SDS011;37732;53.106;7.030;2023-02-28T01:54:45;8.27;;;5.25;;
51654;SDS011;37732;53.106;7.030;2023-02-28T01:57:17;8.75;;;5.65;;
51654;SDS011;37732;53.106;7.030;2023-02-28T01:59:52;8.25;;;5.97;;
51654;SDS011;37732;53.106;7.030;2023-02-28T02:02:24;8.57;;;4.95;;
51654;SDS011;37732;53.106;7.030;2023-02-28T02:04:58;10.43;;;6.03;;
51654;SDS011;37732;53.106;7.030;2023-02-28T02:07:37;10.88;;;7.15;;
51654;SDS011;37732;53.106;7.030;2023-02-28T02:17:59;13.77;;;7.25;;
51654;SDS011;37732;53.106;7.030;2023-02-28T02:20:37;9.32;;;5.68;;
51654;SDS011;37732;53.106;7.030;2023-02-28T02:26:32;11.23;;;7.38;;
51654;SDS011;37732;53.106;7.030;2023-02-28T02:35:25;11.82;;;8.60;;
51654;SDS011;37732;53.106;7.030;2023-02-28T02:38:03;13.10;;;8.27;;
51654;SDS011;37732;53.106;7.030;2023-02-28T02:40:47;8.10;;;5.13;;
51654;SDS011;37732;53.106;7.030;2023-02-28T02:43:34;11.20;;;7.60;;
51654;SDS011;37732;53.106;7.030;2023-02-28T02:46:13;12.68;;;7.03;;
51654;SDS011;37732;53.106;7.030;2023-02-28T02:48:46;17.92;;;7.78;;
51654;SDS011;37732;53.106;7.030;2023-02-28T02:51:16;9.85;;;7.35;;
51654;SDS011;37732;53.106;7.030;2023-02-28T02:56:21;19.65;;;9.80;;
51654;SDS011;37732;53.106;7.030;2023-02-28T02:58:51;9.63;;;5.57;;
51654;SDS011;37732;53.106;7.030;2023-02-28T03:01:22;11.60;;;5.47;;
51654;SDS011;37732;53.106;7.030;2023-02-28T03:03:54;8.35;;;5.82;;
51654;SDS011;37732;53.106;7.030;2023-02-28T03:06:42;14.73;;;10.75;;
51654;SDS011;37732;53.106;7.030;2023-02-28T03:09:08;13.32;;;7.95;;
51654;SDS011;37732;53.106;7.030;2023-02-28T03:11:34;12.30;;;7.90;;
51654;SDS011;37732;53.106;7.030;2023-02-28T03:22:24;11.20;;;6.70;;
51654;SDS011;37732;53.106;7.030;2023-02-28T03:25:18;9.38;;;6.05;;
51654;SDS011;37732;53.106;7.030;2023-02-28T03:30:44;9.15;;;7.25;;
51654;SDS011;37732;53.106;7.030;2023-02-28T03:36:13;13.07;;;8.52;;
51654;SDS011;37732;53.106;7.030;2023-02-28T03:41:41;14.43;;;9.05;;
51654;SDS011;37732;53.106;7.030;2023-02-28T03:44:19;13.43;;;7.90;;
51654;SDS011;37732;53.106;7.030;2023-02-28T03:47:10;10.60;;;7.40;;
51654;SDS011;37732;53.106;7.030;2023-02-28T03:49:40;10.63;;;6.75;;
51654;SDS011;37732;53.106;7.030;2023-02-28T03:52:12;9.17;;;6.47;;
51654;SDS011;37732;53.106;7.030;2023-02-28T03:54:42;10.85;;;7.03;;
51654;SDS011;37732;53.106;7.030;2023-02-28T03:57:13;10.27;;;7.07;;
51654;SDS011;37732;53.106;7.030;2023-02-28T03:59:50;8.65;;;6.68;;
51654;SDS011;37732;53.106;7.030;2023-02-28T04:02:25;10.38;;;7.25;;
51654;SDS011;37732;53.106;7.030;2023-02-28T04:04:51;12.80;;;9.02;;
51654;SDS011;37732;53.106;7.030;2023-02-28T04:07:16;11.18;;;7.97;;
51654;SDS011;37732;53.106;7.030;2023-02-28T04:09:43;8.25;;;6.65;;
51654;SDS011;37732;53.106;7.030;2023-02-28T04:12:09;10.57;;;7.25;;
51654;SDS011;37732;53.106;7.030;2023-02-28T04:14:35;10.48;;;6.63;;
51654;SDS011;37732;53.106;7.030;2023-02-28T04:17:02;11.05;;;7.05;;
51654;SDS011;37732;53.106;7.030;2023-02-28T04:19:28;15.00;;;9.10;;
51654;SDS011;37732;53.106;7.030;2023-02-28T04:21:54;11.23;;;7.88;;
51654;SDS011;37732;53.106;7.030;2023-02-28T04:24:23;10.13;;;6.18;;
51654;SDS011;37732;53.106;7.030;2023-02-28T04:26:51;11.52;;;8.82;;
51654;SDS011;37732;53.106;7.030;2023-02-28T04:29:20;8.52;;;7.13;;
51654;SDS011;37732;53.106;7.030;2023-02-28T04:31:49;9.45;;;6.93;;
51654;SDS011;37732;53.106;7.030;2023-02-28T04:34:15;9.25;;;6.85;;
51654;SDS011;37732;53.106;7.030;2023-02-28T04:36:45;9.38;;;7.05;;
51654;SDS011;37732;53.106;7.030;2023-02-28T04:39:11;11.38;;;7.18;;
51654;SDS011;37732;53.106;7.030;2023-02-28T04:41:42;10.38;;;8.02;;
51654;SDS011;37732;53.106;7.030;2023-02-28T04:44:07;9.80;;;7.88;;
51654;SDS011;37732;53.106;7.030;2023-02-28T04:46:33;12.60;;;7.88;;
51654;SDS011;37732;53.106;7.030;2023-02-28T04:48:59;11.52;;;8.13;;
51654;SDS011;37732;53.106;7.030;2023-02-28T04:51:25;12.15;;;7.80;;
51654;SDS011;37732;53.106;7.030;2023-02-28T04:53:51;11.25;;;7.32;;
51654;SDS011;37732;53.106;7.030;2023-02-28T04:56:17;10.75;;;8.07;;
51654;SDS011;37732;53.106;7.030;2023-02-28T04:58:44;11.02;;;7.78;;
51654;SDS011;37732;53.106;7.030;2023-02-28T05:01:22;13.38;;;8.95;;
51654;SDS011;37732;53.106;7.030;2023-02-28T05:03:49;11.52;;;8.38;;
51654;SDS011;37732;53.106;7.030;2023-02-28T05:06:17;11.40;;;8.10;;
51654;SDS011;37732;53.106;7.030;2023-02-28T05:08:45;9.95;;;7.82;;
51654;SDS011;37732;53.106;7.030;2023-02-28T05:11:18;10.32;;;8.68;;
51654;SDS011;37732;53.106;7.030;2023-02-28T05:13:46;13.23;;;8.95;;
51654;SDS011;37732;53.106;7.030;2023-02-28T05:16:13;14.77;;;7.80;;
51654;SDS011;37732;53.106;7.030;2023-02-28T05:18:40;12.27;;;9.90;;
51654;SDS011;37732;53.106;7.030;2023-02-28T05:23:54;14.13;;;9.77;;
51654;SDS011;37732;53.106;7.030;2023-02-28T05:26:21;11.25;;;8.27;;
51654;SDS011;37732;53.106;7.030;2023-02-28T05:28:47;11.40;;;8.90;;
51654;SDS011;37732;53.106;7.030;2023-02-28T05:31:13;11.38;;;8.32;;
51654;SDS011;37732;53.106;7.030;2023-02-28T05:33:40;13.15;;;9.73;;
51654;SDS011;37732;53.106;7.030;2023-02-28T05:36:07;14.05;;;10.75;;
51654;SDS011;37732;53.106;7.030;2023-02-28T05:38:33;17.35;;;11.88;;
51654;SDS011;37732;53.106;7.030;2023-02-28T05:40:59;12.57;;;9.30;;
51654;SDS011;37732;53.106;7.030;2023-02-28T05:43:25;15.63;;;11.82;;
51654;SDS011;37732;53.106;7.030;2023-02-28T05:45:51;18.48;;;11.15;;
51654;SDS011;37732;53.106;7.030;2023-02-28T05:48:17;15.02;;;11.05;;
51654;SDS011;37732;53.106;7.030;2023-02-28T05:50:43;14.65;;;10.73;;
51654;SDS011;37732;53.106;7.030;2023-02-28T05:53:11;13.25;;;9.85;;
51654;SDS011;37732;53.106;7.030;2023-02-28T05:55:37;12.85;;;9.68;;
51654;SDS011;37732;53.106;7.030;2023-02-28T05:58:03;15.75;;;10.88;;
51654;SDS011;37732;53.106;7.030;2023-02-28T06:00:29;9.63;;;8.27;;
51654;SDS011;37732;53.106;7.030;2023-02-28T06:02:55;14.32;;;10.43;;
51654;SDS011;37732;53.106;7.030;2023-02-28T06:05:23;15.48;;;10.68;;
51654;SDS011;37732;53.106;7.030;2023-02-28T06:07:50;13.27;;;10.13;;
51654;SDS011;37732;53.106;7.030;2023-02-28T06:10:16;12.35;;;9.52;;
51654;SDS011;37732;53.106;7.030;2023-02-28T06:12:42;12.35;;;10.70;;
51654;SDS011;37732;53.106;7.030;2023-02-28T06:15:11;11.57;;;10.20;;
51654;SDS011;37732;53.106;7.030;2023-02-28T06:17:38;14.15;;;9.35;;
51654;SDS011;37732;53.106;7.030;2023-02-28T06:20:04;13.30;;;9.30;;
51654;SDS011;37732;53.106;7.030;2023-02-28T06:22:32;16.23;;;12.23;;
51654;SDS011;37732;53.106;7.030;2023-02-28T06:24:58;14.73;;;11.00;;
51654;SDS011;37732;53.106;7.030;2023-02-28T06:27:24;13.90;;;10.88;;
51654;SDS011;37732;53.106;7.030;2023-02-28T06:29:53;13.45;;;10.38;;
51654;SDS011;37732;53.106;7.030;2023-02-28T06:32:20;14.02;;;11.20;;
51654;SDS011;37732;53.106;7.030;2023-02-28T06:34:46;16.05;;;11.82;;
51654;SDS011;37732;53.106;7.030;2023-02-28T06:37:12;14.32;;;10.77;;
51654;SDS011;37732;53.106;7.030;2023-02-28T06:39:38;12.68;;;10.32;;
51654;SDS011;37732;53.106;7.030;2023-02-28T06:42:06;18.77;;;14.02;;
51654;SDS011;37732;53.106;7.030;2023-02-28T06:44:32;18.05;;;14.25;;
51654;SDS011;37732;53.106;7.030;2023-02-28T06:47:00;15.65;;;11.70;;
51654;SDS011;37732;53.106;7.030;2023-02-28T06:49:30;18.45;;;12.93;;
51654;SDS011;37732;53.106;7.030;2023-02-28T06:51:57;17.80;;;15.75;;
51654;SDS011;37732;53.106;7.030;2023-02-28T06:54:23;20.48;;;16.42;;
51654;SDS011;37732;53.106;7.030;2023-02-28T06:56:49;19.58;;;14.45;;
51654;SDS011;37732;53.106;7.030;2023-02-28T06:59:15;17.85;;;13.77;;
51654;SDS011;37732;53.106;7.030;2023-02-28T07:01:42;15.48;;;12.50;;
51654;SDS011;37732;53.106;7.030;2023-02-28T07:04:08;16.75;;;13.00;;
51654;SDS011;37732;53.106;7.030;2023-02-28T07:06:34;13.65;;;11.57;;
51654;SDS011;37732;53.106;7.030;2023-02-28T07:09:01;15.85;;;12.32;;
51654;SDS011;37732;53.106;7.030;2023-02-28T07:11:27;14.90;;;12.82;;
51654;SDS011;37732;53.106;7.030;2023-02-28T07:13:53;15.57;;;13.05;;
51654;SDS011;37732;53.106;7.030;2023-02-28T07:16:22;14.40;;;11.40;;
51654;SDS011;37732;53.106;7.030;2023-02-28T07:18:48;15.27;;;12.52;;
51654;SDS011;37732;53.106;7.030;2023-02-28T07:21:14;14.55;;;12.70;;
51654;SDS011;37732;53.106;7.030;2023-02-28T07:23:41;17.08;;;12.05;;
51654;SDS011;37732;53.106;7.030;2023-02-28T07:26:12;19.45;;;12.00;;
51654;SDS011;37732;53.106;7.030;2023-02-28T07:28:41;18.17;;;13.00;;
51654;SDS011;37732;53.106;7.030;2023-02-28T07:31:07;17.35;;;12.05;;
51654;SDS011;37732;53.106;7.030;2023-02-28T07:33:34;17.20;;;13.20;;
51654;SDS011;37732;53.106;7.030;2023-02-28T07:36:05;17.15;;;12.65;;
51654;SDS011;37732;53.106;7.030;2023-02-28T07:38:41;16.55;;;13.15;;
51654;SDS011;37732;53.106;7.030;2023-02-28T07:41:08;15.35;;;13.00;;
51654;SDS011;37732;53.106;7.030;2023-02-28T07:43:34;18.10;;;13.35;;
51654;SDS011;37732;53.106;7.030;2023-02-28T07:48:34;21.73;;;14.23;;
51654;SDS011;37732;53.106;7.030;2023-02-28T07:50:59;15.57;;;12.95;;
51654;SDS011;37732;53.106;7.030;2023-02-28T07:53:26;17.45;;;12.18;;
51654;SDS011;37732;53.106;7.030;2023-02-28T07:55:56;16.67;;;13.18;;
51654;SDS011;37732;53.106;7.030;2023-02-28T07:58:28;16.83;;;14.45;;
51654;SDS011;37732;53.106;7.030;2023-02-28T08:00:55;16.30;;;13.50;;
51654;SDS011;37732;53.106;7.030;2023-02-28T08:03:23;17.48;;;13.18;;
51654;SDS011;37732;53.106;7.030;2023-02-28T08:05:49;19.00;;;15.27;;
51654;SDS011;37732;53.106;7.030;2023-02-28T08:08:15;18.40;;;15.50;;
51654;SDS011;37732;53.106;7.030;2023-02-28T08:10:44;16.25;;;12.63;;
51654;SDS011;37732;53.106;7.030;2023-02-28T08:13:10;16.98;;;14.23;;
51654;SDS011;37732;53.106;7.030;2023-02-28T08:15:36;19.75;;;15.90;;
51654;SDS011;37732;53.106;7.030;2023-02-28T08:18:02;22.50;;;16.52;;
51654;SDS011;37732;53.106;7.030;2023-02-28T08:20:27;21.13;;;17.80;;
51654;SDS011;37732;53.106;7.030;2023-02-28T08:22:55;21.05;;;17.38;;
51654;SDS011;37732;53.106;7.030;2023-02-28T08:25:21;21.77;;;17.55;;
51654;SDS011;37732;53.106;7.030;2023-02-28T08:27:46;24.55;;;19.08;;
51654;SDS011;37732;53.106;7.030;2023-02-28T08:30:12;26.30;;;21.60;;
51654;SDS011;37732;53.106;7.030;2023-02-28T08:32:40;24.52;;;19.48;;
51654;SDS011;37732;53.106;7.030;2023-02-28T08:35:06;24.52;;;18.65;;
51654;SDS011;37732;53.106;7.030;2023-02-28T08:37:34;26.00;;;19.92;;
51654;SDS011;37732;53.106;7.030;2023-02-28T08:40:02;20.48;;;15.75;;
51654;SDS011;37732;53.106;7.030;2023-02-28T08:42:29;16.35;;;13.90;;
51654;SDS011;37732;53.106;7.030;2023-02-28T08:44:55;20.42;;;14.18;;
51654;SDS011;37732;53.106;7.030;2023-02-28T08:47:22;16.55;;;13.05;;
51654;SDS011;37732;53.106;7.030;2023-02-28T08:49:48;16.15;;;13.07;;
51654;SDS011;37732;53.106;7.030;2023-02-28T08:52:14;17.25;;;13.73;;
51654;SDS011;37732;53.106;7.030;2023-02-28T08:54:40;16.10;;;13.05;;
51654;SDS011;37732;53.106;7.030;2023-02-28T08:57:06;16.92;;;12.32;;
51654;SDS011;37732;53.106;7.030;2023-02-28T08:59:32;15.13;;;12.57;;
51654;SDS011;37732;53.106;7.030;2023-02-28T09:01:58;17.25;;;13.20;;
51654;SDS011;37732;53.106;7.030;2023-02-28T09:04:24;18.75;;;13.20;;
51654;SDS011;37732;53.106;7.030;2023-02-28T09:06:50;18.05;;;13.70;;
51654;SDS011;37732;53.106;7.030;2023-02-28T09:09:16;18.65;;;13.85;;
51654;SDS011;37732;53.106;7.030;2023-02-28T09:11:42;14.48;;;12.43;;
51654;SDS011;37732;53.106;7.030;2023-02-28T09:14:08;16.17;;;12.88;;
51654;SDS011;37732;53.106;7.030;2023-02-28T09:16:34;17.40;;;12.80;;
51654;SDS011;37732;53.106;7.030;2023-02-28T09:19:00;18.90;;;11.73;;
51654;SDS011;37732;53.106;7.030;2023-02-28T09:21:29;16.85;;;12.05;;
51654;SDS011;37732;53.106;7.030;2023-02-28T09:23:55;15.65;;;11.98;;
51654;SDS011;37732;53.106;7.030;2023-02-28T09:26:22;17.52;;;13.10;;
51654;SDS011;37732;53.106;7.030;2023-02-28T09:28:50;17.48;;;12.23;;
51654;SDS011;37732;53.106;7.030;2023-02-28T09:31:21;13.82;;;11.52;;
51654;SDS011;37732;53.106;7.030;2023-02-28T09:33:49;17.02;;;12.48;;
51654;SDS011;37732;53.106;7.030;2023-02-28T09:36:18;16.58;;;12.18;;
51654;SDS011;37732;53.106;7.030;2023-02-28T09:38:45;17.42;;;12.90;;
51654;SDS011;37732;53.106;7.030;2023-02-28T09:41:19;14.63;;;11.60;;
51654;SDS011;37732;53.106;7.030;2023-02-28T09:43:57;15.95;;;12.43;;
51654;SDS011;37732;53.106;7.030;2023-02-28T09:46:41;15.27;;;12.38;;
51654;SDS011;37732;53.106;7.030;2023-02-28T09:49:16;15.88;;;12.35;;
51654;SDS011;37732;53.106;7.030;2023-02-28T09:51:54;14.57;;;12.33;;
51654;SDS011;37732;53.106;7.030;2023-02-28T09:54:21;14.45;;;11.55;;
51654;SDS011;37732;53.106;7.030;2023-02-28T09:56:54;15.32;;;12.18;;
51654;SDS011;37732;53.106;7.030;2023-02-28T10:05:00;15.45;;;11.52;;
51654;SDS011;37732;53.106;7.030;2023-02-28T10:15:21;14.63;;;9.90;;
51654;SDS011;37732;53.106;7.030;2023-02-28T10:17:54;15.40;;;10.65;;
51654;SDS011;37732;53.106;7.030;2023-02-28T10:20:23;13.65;;;11.07;;
51654;SDS011;37732;53.106;7.030;2023-02-28T10:25:53;11.95;;;9.88;;
51654;SDS011;37732;53.106;7.030;2023-02-28T10:28:43;13.05;;;10.18;;
51654;SDS011;37732;53.106;7.030;2023-02-28T10:31:18;13.70;;;9.82;;
51654;SDS011;37732;53.106;7.030;2023-02-28T10:33:44;9.82;;;8.18;;
51654;SDS011;37732;53.106;7.030;2023-02-28T10:36:14;9.70;;;6.97;;
51654;SDS011;37732;53.106;7.030;2023-02-28T10:38:41;13.30;;;8.65;;
51654;SDS011;37732;53.106;7.030;2023-02-28T10:41:13;11.25;;;9.05;;
51654;SDS011;37732;53.106;7.030;2023-02-28T10:43:42;9.48;;;7.97;;
51654;SDS011;37732;53.106;7.030;2023-02-28T10:46:12;11.60;;;9.07;;
51654;SDS011;37732;53.106;7.030;2023-02-28T10:49:24;12.25;;;8.07;;
51654;SDS011;37732;53.106;7.030;2023-02-28T10:51:47;10.38;;;8.25;;
51654;SDS011;37732;53.106;7.030;2023-02-28T10:54:19;11.18;;;8.05;;
51654;SDS011;37732;53.106;7.030;2023-02-28T10:59:34;10.68;;;7.20;;
51654;SDS011;37732;53.106;7.030;2023-02-28T11:02:00;10.60;;;7.50;;
51654;SDS011;37732;53.106;7.030;2023-02-28T11:07:20;10.05;;;7.53;;
51654;SDS011;37732;53.106;7.030;2023-02-28T12:57:59;6.95;;;5.57;;
51654;SDS011;37732;53.106;7.030;2023-02-28T13:00:48;9.30;;;6.90;;
51654;SDS011;37732;53.106;7.030;2023-02-28T13:09:13;8.52;;;5.85;;
51654;SDS011;37732;53.106;7.030;2023-02-28T13:14:19;9.80;;;5.70;;
51654;SDS011;37732;53.106;7.030;2023-02-28T13:19:17;7.63;;;5.80;;
51654;SDS011;37732;53.106;7.030;2023-02-28T13:21:46;7.93;;;5.85;;
51654;SDS011;37732;53.106;7.030;2023-02-28T13:24:36;8.07;;;5.57;;
51654;SDS011;37732;53.106;7.030;2023-02-28T13:34:35;10.65;;;7.00;;
51654;SDS011;37732;53.106;7.030;2023-02-28T13:39:49;10.43;;;6.07;;
51654;SDS011;37732;53.106;7.030;2023-02-28T13:42:23;10.30;;;5.93;;
51654;SDS011;37732;53.106;7.030;2023-02-28T13:47:42;7.35;;;5.35;;
51654;SDS011;37732;53.106;7.030;2023-02-28T14:06:56;8.45;;;5.60;;
51654;SDS011;37732;53.106;7.030;2023-02-28T14:09:27;10.07;;;5.97;;
51654;SDS011;37732;53.106;7.030;2023-02-28T14:11:55;8.40;;;6.25;;
51654;SDS011;37732;53.106;7.030;2023-02-28T14:17:05;9.18;;;7.35;;
51654;SDS011;37732;53.106;7.030;2023-02-28T14:19:37;10.35;;;8.48;;
51654;SDS011;37732;53.106;7.030;2023-02-28T14:25:03;9.15;;;7.57;;
51654;SDS011;37732;53.106;7.030;2023-02-28T14:38:27;9.27;;;6.35;;
51654;SDS011;37732;53.106;7.030;2023-02-28T14:40:57;7.70;;;5.75;;
51654;SDS011;37732;53.106;7.030;2023-02-28T14:43:26;7.18;;;5.00;;
51654;SDS011;37732;53.106;7.030;2023-02-28T14:45:57;6.78;;;5.35;;
51654;SDS011;37732;53.106;7.030;2023-02-28T14:48:25;7.68;;;5.45;;
51654;SDS011;37732;53.106;7.030;2023-02-28T14:50:56;9.10;;;5.32;;
51654;SDS011;37732;53.106;7.030;2023-02-28T14:53:25;6.15;;;4.75;;
51654;SDS011;37732;53.106;7.030;2023-02-28T14:55:53;8.75;;;5.60;;
51654;SDS011;37732;53.106;7.030;2023-02-28T14:58:21;7.93;;;5.10;;
51654;SDS011;37732;53.106;7.030;2023-02-28T15:00:52;7.72;;;5.90;;
51654;SDS011;37732;53.106;7.030;2023-02-28T15:05:58;8.40;;;5.57;;
51654;SDS011;37732;53.106;7.030;2023-02-28T15:08:26;7.00;;;5.40;;
51654;SDS011;37732;53.106;7.030;2023-02-28T15:11:13;7.18;;;4.88;;
51654;SDS011;37732;53.106;7.030;2023-02-28T15:13:45;7.50;;;4.35;;
51654;SDS011;37732;53.106;7.030;2023-02-28T15:16:20;6.07;;;4.38;;
51654;SDS011;37732;53.106;7.030;2023-02-28T15:18:54;6.82;;;4.22;;
51654;SDS011;37732;53.106;7.030;2023-02-28T15:21:30;5.68;;;4.25;;
51654;SDS011;37732;53.106;7.030;2023-02-28T15:24:06;6.40;;;4.57;;
51654;SDS011;37732;53.106;7.030;2023-02-28T15:26:40;8.80;;;4.93;;
51654;SDS011;37732;53.106;7.030;2023-02-28T15:29:12;9.07;;;5.47;;
51654;SDS011;37732;53.106;7.030;2023-02-28T15:31:51;9.48;;;6.70;;
51654;SDS011;37732;53.106;7.030;2023-02-28T15:34:27;9.65;;;6.82;;
51654;SDS011;37732;53.106;7.030;2023-02-28T15:37:00;8.10;;;6.13;;
51654;SDS011;37732;53.106;7.030;2023-02-28T15:39:26;8.18;;;5.97;;
51654;SDS011;37732;53.106;7.030;2023-02-28T15:42:12;10.10;;;6.05;;
51654;SDS011;37732;53.106;7.030;2023-02-28T15:44:43;8.02;;;5.78;;
51654;SDS011;37732;53.106;7.030;2023-02-28T15:47:16;7.82;;;5.50;;
51654;SDS011;37732;53.106;7.030;2023-02-28T15:52:26;8.27;;;5.22;;
51654;SDS011;37732;53.106;7.030;2023-02-28T15:57:45;6.90;;;4.95;;
51654;SDS011;37732;53.106;7.030;2023-02-28T16:00:15;11.68;;;5.82;;
51654;SDS011;37732;53.106;7.030;2023-02-28T16:02:45;7.55;;;5.03;;
51654;SDS011;37732;53.106;7.030;2023-02-28T16:07:40;7.53;;;5.55;;
51654;SDS011;37732;53.106;7.030;2023-02-28T16:10:09;8.52;;;6.43;;
51654;SDS011;37732;53.106;7.030;2023-02-28T16:12:36;7.25;;;5.97;;
51654;SDS011;37732;53.106;7.030;2023-02-28T16:15:20;10.80;;;6.60;;
51654;SDS011;37732;53.106;7.030;2023-02-28T16:17:46;8.60;;;6.25;;
51654;SDS011;37732;53.106;7.030;2023-02-28T16:20:13;8.25;;;6.25;;
51654;SDS011;37732;53.106;7.030;2023-02-28T16:22:39;8.68;;;6.82;;
51654;SDS011;37732;53.106;7.030;2023-02-28T16:25:07;8.27;;;7.43;;
51654;SDS011;37732;53.106;7.030;2023-02-28T16:27:44;8.57;;;6.93;;
51654;SDS011;37732;53.106;7.030;2023-02-28T16:30:18;7.72;;;6.93;;
51654;SDS011;37732;53.106;7.030;2023-02-28T16:32:47;7.75;;;6.93;;
51654;SDS011;37732;53.106;7.030;2023-02-28T16:35:13;8.00;;;6.80;;
51654;SDS011;37732;53.106;7.030;2023-02-28T16:37:39;10.50;;;7.72;;
51654;SDS011;37732;53.106;7.030;2023-02-28T16:40:06;9.25;;;8.18;;
51654;SDS011;37732;53.106;7.030;2023-02-28T16:42:40;10.68;;;8.55;;
51654;SDS011;37732;53.106;7.030;2023-02-28T16:45:06;9.57;;;7.97;;
51654;SDS011;37732;53.106;7.030;2023-02-28T16:47:41;9.90;;;8.80;;
51654;SDS011;37732;53.106;7.030;2023-02-28T16:50:14;10.32;;;9.23;;
51654;SDS011;37732;53.106;7.030;2023-02-28T16:52:48;12.15;;;9.95;;
51654;SDS011;37732;53.106;7.030;2023-02-28T16:55:14;9.98;;;8.32;;
51654;SDS011;37732;53.106;7.030;2023-02-28T16:57:40;9.88;;;8.50;;
51654;SDS011;37732;53.106;7.030;2023-02-28T17:00:08;12.27;;;9.23;;
51654;SDS011;37732;53.106;7.030;2023-02-28T17:02:37;10.88;;;8.77;;
51654;SDS011;37732;53.106;7.030;2023-02-28T17:05:03;10.35;;;9.35;;
51654;SDS011;37732;53.106;7.030;2023-02-28T17:07:29;10.70;;;8.75;;
51654;SDS011;37732;53.106;7.030;2023-02-28T17:09:55;11.52;;;9.45;;
51654;SDS011;37732;53.106;7.030;2023-02-28T17:12:21;11.18;;;9.13;;
51654;SDS011;37732;53.106;7.030;2023-02-28T17:14:46;10.60;;;9.30;;
51654;SDS011;37732;53.106;7.030;2023-02-28T17:17:16;10.75;;;8.65;;
51654;SDS011;37732;53.106;7.030;2023-02-28T17:19:44;11.98;;;8.75;;
51654;SDS011;37732;53.106;7.030;2023-02-28T17:22:10;13.85;;;11.23;;
51654;SDS011;37732;53.106;7.030;2023-02-28T17:24:36;10.82;;;8.63;;
51654;SDS011;37732;53.106;7.030;2023-02-28T17:27:02;12.07;;;9.55;;
51654;SDS011;37732;53.106;7.030;2023-02-28T17:29:28;11.00;;;9.32;;
51654;SDS011;37732;53.106;7.030;2023-02-28T17:31:53;12.05;;;8.48;;
51654;SDS011;37732;53.106;7.030;2023-02-28T17:34:20;11.05;;;9.10;;
51654;SDS011;37732;53.106;7.030;2023-02-28T17:36:47;11.20;;;9.45;;
51654;SDS011;37732;53.106;7.030;2023-02-28T17:39:15;11.68;;;10.02;;
51654;SDS011;37732;53.106;7.030;2023-02-28T17:41:49;11.77;;;9.82;;
51654;SDS011;37732;53.106;7.030;2023-02-28T17:44:19;13.15;;;10.55;;
51654;SDS011;37732;53.106;7.030;2023-02-28T17:46:46;18.10;;;12.25;;
51654;SDS011;37732;53.106;7.030;2023-02-28T17:49:12;11.93;;;10.73;;
51654;SDS011;37732;53.106;7.030;2023-02-28T17:51:38;13.27;;;10.90;;
51654;SDS011;37732;53.106;7.030;2023-02-28T17:54:04;14.27;;;12.80;;
51654;SDS011;37732;53.106;7.030;2023-02-28T17:56:30;12.55;;;11.20;;
51654;SDS011;37732;53.106;7.030;2023-02-28T17:58:56;11.75;;;10.52;;
51654;SDS011;37732;53.106;7.030;2023-02-28T18:01:22;13.65;;;11.40;;
51654;SDS011;37732;53.106;7.030;2023-02-28T18:03:51;14.65;;;12.63;;
51654;SDS011;37732;53.106;7.030;2023-02-28T18:06:22;13.63;;;11.75;;
51654;SDS011;37732;53.106;7.030;2023-02-28T18:08:56;13.93;;;11.65;;
51654;SDS011;37732;53.106;7.030;2023-02-28T18:11:22;12.43;;;11.13;;
51654;SDS011;37732;53.106;7.030;2023-02-28T18:13:53;11.40;;;10.10;;
51654;SDS011;37732;53.106;7.030;2023-02-28T18:16:20;16.50;;;12.85;;
51654;SDS011;37732;53.106;7.030;2023-02-28T18:18:47;14.50;;;13.00;;
51654;SDS011;37732;53.106;7.030;2023-02-28T18:21:14;18.10;;;14.40;;
51654;SDS011;37732;53.106;7.030;2023-02-28T18:23:41;15.45;;;12.93;;
51654;SDS011;37732;53.106;7.030;2023-02-28T18:26:15;13.73;;;11.73;;
51654;SDS011;37732;53.106;7.030;2023-02-28T18:28:43;15.20;;;12.65;;
51654;SDS011;37732;53.106;7.030;2023-02-28T18:31:10;14.43;;;12.63;;
51654;SDS011;37732;53.106;7.030;2023-02-28T18:33:37;15.80;;;12.60;;
51654;SDS011;37732;53.106;7.030;2023-02-28T18:36:04;13.95;;;11.95;;
51654;SDS011;37732;53.106;7.030;2023-02-28T18:38:31;16.20;;;13.20;;
51654;SDS011;37732;53.106;7.030;2023-02-28T18:41:00;14.75;;;12.98;;
51654;SDS011;37732;53.106;7.030;2023-02-28T18:43:29;15.30;;;13.70;;
51654;SDS011;37732;53.106;7.030;2023-02-28T18:45:57;13.55;;;11.93;;
51654;SDS011;37732;53.106;7.030;2023-02-28T18:48:27;13.18;;;11.75;;
51654;SDS011;37732;53.106;7.030;2023-02-28T18:50:52;15.00;;;13.40;;